Taylors, South Carolina
Current Conditions -  °F | °C
As of 3:53 AM on Sunday 21 Dec 2014 (Local Time) from KGMU Reporting Station
Overcast Overcast  
Wind Chill: 38°   Ceiling: 800
Heat Index: 42°   Visibility: 8mi
Dew Point: 38°   Wind: 6mph
Humidity: 85%   Direction: 60°ENE
Pressure: 30.23"   Gusts: NA
Location:  34.89°N, 82.3°W
Report Text: KGMU 210853Z AUTO 06005KT 8SM OVC008 06/03 A3023 RMK AO2 SLP242 T00560033 56002
Loading
Personal Weather Stations






























Interactive Weather Map New forecast layout! Learn more

10-Day Weather Forecast

Advertisements
Track Severe Weather on mobile